createdAt,value
2022-08-23T00:02:27.763Z,94.30
2022-08-23T00:05:08.114Z,94.60
2022-08-23T00:07:39.276Z,94.70
2022-08-23T00:10:11.292Z,95.00
2022-08-23T00:12:38.931Z,94.80
2022-08-23T00:15:07.617Z,94.90
2022-08-23T00:17:36.269Z,94.80
2022-08-23T00:20:08.594Z,94.60
2022-08-23T00:22:36.407Z,94.50
2022-08-23T00:25:05.228Z,94.70
2022-08-23T00:27:33.403Z,94.80
2022-08-23T00:30:00.873Z,94.90
2022-08-23T00:32:34.517Z,95.00
2022-08-23T00:35:02.241Z,95.30
2022-08-23T00:37:32.112Z,95.30
2022-08-23T00:40:00.572Z,95.50
2022-08-23T00:43:11.783Z,95.60
2022-08-23T00:46:26.328Z,96.00
2022-08-23T00:48:53.677Z,96.20
2022-08-23T00:51:41.317Z,96.30
2022-08-23T00:54:22.006Z,96.50
2022-08-23T00:56:49.363Z,96.70
2022-08-23T00:59:16.718Z,96.80
2022-08-23T01:01:44.187Z,97.00
2022-08-23T01:04:11.634Z,97.10
2022-08-23T01:06:48.323Z,97.20
2022-08-23T01:09:18.588Z,97.30
2022-08-23T01:12:11.422Z,97.20
2022-08-23T01:15:06.804Z,97.20
2022-08-23T01:17:55.654Z,97.30
2022-08-23T01:20:26.901Z,97.30
2022-08-23T01:23:03.055Z,97.40
2022-08-23T01:25:31.321Z,97.60
2022-08-23T01:27:59.687Z,97.70
2022-08-23T01:30:28.958Z,98.00
2022-08-23T01:32:58.240Z,98.00
2022-08-23T01:35:46.892Z,98.10
2022-08-23T01:38:14.698Z,98.20
2022-08-23T01:40:42.841Z,98.20
2022-08-23T01:43:11.745Z,98.40
2022-08-23T01:45:39.635Z,98.60
2022-08-23T01:48:07.979Z,98.80
2022-08-23T01:53:03.215Z,99.20
2022-08-23T01:55:31.709Z,99.20
2022-08-23T01:58:01.148Z,99.40
2022-08-23T02:00:32.939Z,99.80
2022-08-23T02:03:01.077Z,99.70
2022-08-23T02:05:28.962Z,99.80
2022-08-23T02:07:56.454Z,99.90
2022-08-23T02:10:23.927Z,99.90
2022-08-23T02:12:51.734Z,99.90
2022-08-23T02:15:21.996Z,99.90
2022-08-23T02:17:49.411Z,99.90
2022-08-23T02:20:17.009Z,99.90
2022-08-23T02:22:44.776Z,99.90
2022-08-23T02:25:12.146Z,99.90
2022-08-23T02:27:44.027Z,99.90
2022-08-23T02:30:13.530Z,99.90
2022-08-23T02:32:42.297Z,99.90
2022-08-23T02:35:10.778Z,99.90
2022-08-23T02:37:38.230Z,99.90
2022-08-23T02:40:06.475Z,99.90
2022-08-23T02:42:33.921Z,99.90
2022-08-23T02:45:02.201Z,99.90
2022-08-23T02:47:31.346Z,99.90
2022-08-23T02:50:09.902Z,99.90
2022-08-23T02:52:37.287Z,99.90
2022-08-23T02:55:05.393Z,99.90
2022-08-23T02:57:32.745Z,99.90
2022-08-23T03:00:02.803Z,99.90
2022-08-23T03:02:31.179Z,99.90
2022-08-23T03:04:58.889Z,99.90
2022-08-23T03:07:26.268Z,99.90
2022-08-23T03:09:53.679Z,99.90
2022-08-23T03:12:21.095Z,99.90
2022-08-23T03:14:52.742Z,99.90
2022-08-23T03:17:20.631Z,99.90
2022-08-23T03:19:48.530Z,99.90
2022-08-23T03:22:16.009Z,99.90
2022-08-23T03:24:43.528Z,99.90
2022-08-23T03:27:11.076Z,99.90
2022-08-23T03:29:39.618Z,99.90
2022-08-23T03:32:07.539Z,99.90
2022-08-23T03:34:37.635Z,99.90
2022-08-23T03:37:07.275Z,99.90
2022-08-23T03:39:35.377Z,99.90
2022-08-23T03:42:02.748Z,99.90
2022-08-23T03:44:33.224Z,99.90
2022-08-23T03:47:00.718Z,99.90
2022-08-23T03:49:28.171Z,99.90
2022-08-23T03:51:58.174Z,99.90
2022-08-23T03:54:25.775Z,99.90
2022-08-23T03:57:00.559Z,99.90
2022-08-23T03:59:31.207Z,99.90
2022-08-23T04:01:58.676Z,99.90
2022-08-23T04:04:27.788Z,99.90
2022-08-23T04:07:19.737Z,99.90
2022-08-23T04:09:50.891Z,99.90
2022-08-23T04:12:23.301Z,99.90
2022-08-23T04:14:50.712Z,99.90
2022-08-23T04:17:20.982Z,99.90
2022-08-23T04:19:49.572Z,99.90
2022-08-23T04:22:18.549Z,99.90
2022-08-23T04:24:45.953Z,99.90
2022-08-23T04:27:13.507Z,99.90
2022-08-23T04:29:40.984Z,99.90
2022-08-23T04:32:09.798Z,99.90
2022-08-23T04:34:45.454Z,99.90
2022-08-23T04:37:14.055Z,99.90
2022-08-23T04:40:00.342Z,99.90
2022-08-23T04:42:34.415Z,99.90
2022-08-23T04:45:01.819Z,99.90
2022-08-23T04:47:29.659Z,99.90
2022-08-23T04:50:00.209Z,99.90
2022-08-23T04:52:27.551Z,99.90
2022-08-23T04:54:56.595Z,99.90
2022-08-23T04:57:44.808Z,99.90
2022-08-23T05:00:16.778Z,99.90
2022-08-23T05:02:51.033Z,99.90
2022-08-23T05:05:19.671Z,99.90
2022-08-23T05:07:47.842Z,99.90
2022-08-23T05:10:16.124Z,99.90
2022-08-23T05:12:48.702Z,99.90
2022-08-23T05:15:18.086Z,99.90
2022-08-23T05:17:48.923Z,99.90
2022-08-23T05:20:17.721Z,99.90
2022-08-23T05:22:45.984Z,99.90
2022-08-23T05:25:52.925Z,99.90
2022-08-23T05:28:39.996Z,99.90
2022-08-23T05:31:11.581Z,99.90
2022-08-23T05:34:05.185Z,99.90
2022-08-23T05:36:55.358Z,99.90
2022-08-23T05:39:36.069Z,99.90
2022-08-23T05:42:10.254Z,99.90
2022-08-23T05:44:37.986Z,99.90
2022-08-23T05:47:11.159Z,99.90
2022-08-23T05:49:55.718Z,99.90
2022-08-23T05:52:24.315Z,99.90
2022-08-23T05:54:51.696Z,99.90
2022-08-23T05:57:39.840Z,99.90
2022-08-23T06:00:18.431Z,99.90
2022-08-23T06:02:53.406Z,99.90
2022-08-23T06:05:21.134Z,99.90
2022-08-23T06:07:50.102Z,99.90
2022-08-23T06:10:20.796Z,99.90
2022-08-23T06:12:59.164Z,99.90
2022-08-23T06:15:26.622Z,99.90
2022-08-23T06:17:54.099Z,99.90
2022-08-23T06:20:21.646Z,99.90
2022-08-23T06:23:01.948Z,99.90
2022-08-23T06:25:29.759Z,99.90
2022-08-23T06:28:07.580Z,99.90
2022-08-23T06:30:39.849Z,99.90
2022-08-23T06:33:13.850Z,99.90
2022-08-23T06:35:48.201Z,99.90
2022-08-23T06:38:21.007Z,99.90
2022-08-23T06:41:09.624Z,99.90
2022-08-23T06:43:51.274Z,99.90
2022-08-23T06:46:23.545Z,99.80
2022-08-23T06:48:51.548Z,99.70
2022-08-23T06:51:33.593Z,99.70
2022-08-23T06:54:26.523Z,99.50
2022-08-23T06:57:09.207Z,99.20
2022-08-23T07:00:02.866Z,99.00
2022-08-23T07:02:56.403Z,98.70
2022-08-23T07:05:53.727Z,98.50
2022-08-23T07:08:24.911Z,98.20
2022-08-23T07:10:52.300Z,98.10
2022-08-23T07:13:19.779Z,97.20
2022-08-23T07:15:50.178Z,96.90
2022-08-23T07:18:20.113Z,97.10
2022-08-23T07:20:47.447Z,97.00
2022-08-23T07:23:15.748Z,96.70
2022-08-23T07:25:43.743Z,96.20
2022-08-23T07:28:14.882Z,95.50
2022-08-23T07:30:45.301Z,95.20
2022-08-23T07:33:14.433Z,94.90
2022-08-23T07:36:05.260Z,94.60
2022-08-23T07:38:32.991Z,94.50
2022-08-23T07:41:00.391Z,93.60
2022-08-23T07:43:27.751Z,92.40
2022-08-23T07:45:55.545Z,92.00
2022-08-23T07:48:37.326Z,91.90
2022-08-23T07:51:14.576Z,91.80
2022-08-23T07:53:45.977Z,91.50
2022-08-23T07:56:16.173Z,91.30
2022-08-23T07:58:56.384Z,91.50
2022-08-23T08:01:43.535Z,91.50
2022-08-23T08:04:12.583Z,91.40
2022-08-23T08:06:46.154Z,90.80
2022-08-23T08:09:15.261Z,89.10
2022-08-23T08:11:44.308Z,89.40
2022-08-23T08:14:13.237Z,88.20
2022-08-23T08:16:49.469Z,87.10
2022-08-23T08:19:23.219Z,86.40
2022-08-23T08:22:25.246Z,86.40
2022-08-23T08:25:12.928Z,85.80
2022-08-23T08:27:41.828Z,85.60
2022-08-23T08:30:10.359Z,85.20
2022-08-23T08:32:46.966Z,84.30
2022-08-23T08:35:15.353Z,83.30
2022-08-23T08:37:43.101Z,82.20
2022-08-23T08:40:11.124Z,80.80
2022-08-23T08:42:53.703Z,79.60
2022-08-23T08:45:32.555Z,80.10
2022-08-23T08:48:13.143Z,79.90
2022-08-23T08:50:49.959Z,79.20
2022-08-23T08:53:26.392Z,77.50
2022-08-23T08:56:16.587Z,77.10
2022-08-23T08:58:51.716Z,77.30
2022-08-23T09:01:21.033Z,77.50
2022-08-23T09:03:48.593Z,78.50
2022-08-23T09:06:34.194Z,78.70
2022-08-23T09:09:24.031Z,78.00
2022-08-23T09:12:05.664Z,75.30
2022-08-23T09:14:52.642Z,75.80
2022-08-23T09:18:00.983Z,74.20
2022-08-23T09:20:32.955Z,73.90
2022-08-23T09:23:14.018Z,75.20
2022-08-23T09:25:54.828Z,73.60
2022-08-23T09:28:33.196Z,73.50
2022-08-23T09:31:01.487Z,73.50
2022-08-23T09:33:44.222Z,72.80
2022-08-23T09:36:26.072Z,67.70
2022-08-23T09:39:24.465Z,68.50
2022-08-23T09:42:02.177Z,69.00
2022-08-23T09:44:32.706Z,66.00
2022-08-23T09:47:15.199Z,65.60
2022-08-23T09:49:51.567Z,65.20
2022-08-23T09:52:34.374Z,65.50
2022-08-23T09:55:06.854Z,66.00
2022-08-23T09:57:39.555Z,67.10
2022-08-23T10:00:17.641Z,65.60
2022-08-23T10:02:50.414Z,62.50
2022-08-23T10:05:37.690Z,61.30
2022-08-23T10:08:10.662Z,60.50
2022-08-23T10:10:52.686Z,60.40
2022-08-23T10:13:28.865Z,61.80
2022-08-23T10:16:20.256Z,60.50
2022-08-23T10:19:23.436Z,61.40
2022-08-23T10:21:57.323Z,61.30
2022-08-23T10:24:45.803Z,60.40
2022-08-23T10:27:59.948Z,62.30
2022-08-23T10:30:52.431Z,62.50
2022-08-23T10:33:30.237Z,61.70
2022-08-23T10:35:58.247Z,60.60
2022-08-23T10:39:09.891Z,61.00
2022-08-23T10:41:48.389Z,58.10
2022-08-23T10:44:40.604Z,57.10
2022-08-23T10:47:28.255Z,57.40
2022-08-23T10:49:55.929Z,58.30
2022-08-23T10:52:50.751Z,58.90
2022-08-23T10:55:35.381Z,57.30
2022-08-23T10:58:06.472Z,56.80
2022-08-23T11:00:34.386Z,57.70
2022-08-23T11:03:28.913Z,57.40
2022-08-23T11:06:26.965Z,56.50
2022-08-23T11:09:08.220Z,56.50
2022-08-23T11:11:43.278Z,57.10
2022-08-23T11:14:32.021Z,57.40
2022-08-23T11:17:04.243Z,57.40
2022-08-23T11:19:52.923Z,58.00
2022-08-23T11:22:21.574Z,58.20
2022-08-23T11:24:56.071Z,59.20
2022-08-23T11:27:46.154Z,59.30
2022-08-23T11:30:32.259Z,57.20
2022-08-23T11:33:16.557Z,56.90
2022-08-23T11:35:52.986Z,56.70
2022-08-23T11:38:43.595Z,55.90
2022-08-23T11:41:20.036Z,53.70
2022-08-23T11:43:49.510Z,54.30
2022-08-23T11:46:22.892Z,54.80
2022-08-23T11:49:02.063Z,51.00
2022-08-23T11:51:59.958Z,51.00
2022-08-23T11:54:51.919Z,49.80
2022-08-23T11:57:47.438Z,49.60
2022-08-23T12:00:29.199Z,50.10
2022-08-23T12:03:02.445Z,50.90
2022-08-23T12:05:42.402Z,50.50
2022-08-23T12:08:09.711Z,50.10
2022-08-23T12:10:42.995Z,48.00
2022-08-23T12:13:19.687Z,47.90
2022-08-23T12:16:17.021Z,47.10
2022-08-23T12:18:50.582Z,46.90
2022-08-23T12:21:39.132Z,48.30
2022-08-23T12:24:29.969Z,47.60
2022-08-23T12:27:23.791Z,47.80
2022-08-23T12:30:10.884Z,46.90
2022-08-23T12:32:44.382Z,46.90
2022-08-23T12:35:26.194Z,46.70
2022-08-23T12:38:28.911Z,47.00
2022-08-23T12:40:56.766Z,47.80
2022-08-23T12:43:29.262Z,48.50
2022-08-23T12:45:58.803Z,49.00
2022-08-23T12:48:27.739Z,49.00
2022-08-23T12:50:57.514Z,49.50
2022-08-23T12:53:29.577Z,48.10
2022-08-23T12:56:02.346Z,48.70
2022-08-23T12:58:33.335Z,48.20
2022-08-23T13:01:07.099Z,47.70
2022-08-23T13:03:42.009Z,46.90
2022-08-23T13:06:14.463Z,47.10
2022-08-23T13:08:53.370Z,48.80
2022-08-23T13:11:21.824Z,49.80
2022-08-23T13:13:49.219Z,50.20
2022-08-23T13:16:31.513Z,49.80
2022-08-23T13:19:15.917Z,49.30
2022-08-23T13:21:43.478Z,49.30
2022-08-23T13:24:34.409Z,48.30
2022-08-23T13:27:18.952Z,48.50
2022-08-23T13:30:01.435Z,48.10
2022-08-23T13:32:28.756Z,47.80
2022-08-23T13:35:16.174Z,49.80
2022-08-23T13:37:45.714Z,48.80
2022-08-23T13:40:16.677Z,48.30
2022-08-23T13:42:52.694Z,47.00
2022-08-23T13:45:21.642Z,48.30
2022-08-23T13:48:00.251Z,48.40
2022-08-23T13:50:35.967Z,46.90
2022-08-23T13:53:14.302Z,47.60
2022-08-23T13:55:52.087Z,47.30
2022-08-23T13:58:52.264Z,47.30
2022-08-23T14:01:19.614Z,46.00
2022-08-23T14:03:47.064Z,47.20
2022-08-23T14:06:14.463Z,47.50
2022-08-23T14:08:41.816Z,46.50
2022-08-23T14:11:09.435Z,46.70
2022-08-23T14:13:37.348Z,46.70
2022-08-23T14:21:43.735Z,46.30
2022-08-23T14:24:11.066Z,43.50
2022-08-23T14:26:38.438Z,43.60
2022-08-23T14:29:22.348Z,44.20
2022-08-23T14:31:51.509Z,44.30
2022-08-23T14:34:19.532Z,42.40
2022-08-23T14:39:34.781Z,41.50
2022-08-23T14:42:02.914Z,42.60
2022-08-23T14:44:35.798Z,43.20
2022-08-23T14:47:05.369Z,42.20
2022-08-23T14:49:33.379Z,40.70
2022-08-23T14:52:00.774Z,40.30
2022-08-23T14:54:28.133Z,39.80
2022-08-23T14:56:55.528Z,39.90
2022-08-23T14:59:22.890Z,41.20
2022-08-23T15:01:52.606Z,40.30
2022-08-23T15:04:21.226Z,40.30
2022-08-23T15:07:13.883Z,40.90
2022-08-23T15:09:36.306Z,42.10
2022-08-23T15:14:51.692Z,40.60
2022-08-23T15:17:19.035Z,39.80
2022-08-23T15:19:46.453Z,40.30
2022-08-23T15:22:21.399Z,41.10
2022-08-23T15:24:49.365Z,40.30
2022-08-23T15:27:17.871Z,41.40
2022-08-23T15:29:45.232Z,41.40
2022-08-23T15:32:12.947Z,39.70
2022-08-23T15:34:45.822Z,39.50
2022-08-23T15:37:13.818Z,40.40
2022-08-23T15:39:42.090Z,39.10
2022-08-23T15:42:09.775Z,40.90
2022-08-23T15:44:37.109Z,41.80
2022-08-23T15:47:05.575Z,41.60
2022-08-23T15:49:36.151Z,42.20
2022-08-23T15:52:04.623Z,41.90
2022-08-23T15:54:32.057Z,42.20
2022-08-23T15:56:59.417Z,42.00
2022-08-23T15:59:26.772Z,42.70
2022-08-23T16:01:54.201Z,43.20
2022-08-23T16:04:21.957Z,42.30
2022-08-23T16:06:49.298Z,41.60
2022-08-23T16:09:21.706Z,42.10
2022-08-23T16:11:49.734Z,42.40
2022-08-23T16:14:17.332Z,42.20
2022-08-23T16:16:48.368Z,42.80
2022-08-23T16:19:16.860Z,42.40
2022-08-23T16:21:44.382Z,43.80
2022-08-23T16:24:12.017Z,43.10
2022-08-23T16:26:41.936Z,43.10
2022-08-23T16:29:10.409Z,44.70
2022-08-23T16:31:39.773Z,44.40
2022-08-23T16:34:09.618Z,44.80
2022-08-23T16:36:37.163Z,45.20
2022-08-23T16:39:05.437Z,44.30
2022-08-23T16:41:32.837Z,44.10
2022-08-23T16:44:00.199Z,42.90
2022-08-23T16:46:28.919Z,43.30
2022-08-23T16:48:56.374Z,43.40
2022-08-23T16:51:23.773Z,43.30
2022-08-23T16:53:57.095Z,44.00
2022-08-23T16:56:29.879Z,44.90
2022-08-23T16:58:57.295Z,45.10
2022-08-23T17:01:24.757Z,45.50
2022-08-23T17:03:52.558Z,46.00
2022-08-23T17:06:19.971Z,46.10
2022-08-23T17:08:48.066Z,46.10
2022-08-23T17:11:17.914Z,46.50
2022-08-23T17:13:45.276Z,47.40
2022-08-23T17:16:12.774Z,47.00
2022-08-23T17:18:40.302Z,46.90
2022-08-23T17:21:07.863Z,47.40
2022-08-23T17:23:40.369Z,47.70
2022-08-23T17:26:09.378Z,47.60
2022-08-23T17:28:36.728Z,48.20
2022-08-23T17:31:04.089Z,48.70
2022-08-23T17:33:31.451Z,48.80
2022-08-23T17:35:58.754Z,49.50
2022-08-23T17:38:26.498Z,49.90
2022-08-23T17:40:54.879Z,50.40
2022-08-23T17:43:22.300Z,50.60
2022-08-23T17:45:50.750Z,51.10
2022-08-23T17:48:19.322Z,51.40
2022-08-23T17:50:46.918Z,51.50
2022-08-23T17:53:15.108Z,51.60
2022-08-23T17:55:43.066Z,51.80
2022-08-23T17:58:10.645Z,52.00
2022-08-23T18:00:38.578Z,52.50
2022-08-23T18:03:06.072Z,52.60
2022-08-23T18:05:37.026Z,53.00
2022-08-23T18:08:04.549Z,53.40
2022-08-23T18:10:31.908Z,53.40
2022-08-23T18:12:59.321Z,53.60
2022-08-23T18:15:30.142Z,53.80
2022-08-23T18:17:59.266Z,54.60
2022-08-23T18:20:27.205Z,54.30
2022-08-23T18:22:55.642Z,55.20
2022-08-23T18:25:23.063Z,55.50
2022-08-23T18:28:09.754Z,55.20
2022-08-23T18:30:44.350Z,55.30
2022-08-23T18:33:12.927Z,55.30
2022-08-23T18:35:40.728Z,55.50
2022-08-23T18:38:08.357Z,55.40
2022-08-23T18:40:54.059Z,55.80
2022-08-23T18:43:22.991Z,56.00
2022-08-23T18:45:53.098Z,56.10
2022-08-23T18:48:20.644Z,56.40
2022-08-23T18:50:49.647Z,56.80
2022-08-23T18:53:18.025Z,57.00
2022-08-23T18:55:45.571Z,57.30
2022-08-23T18:58:12.964Z,57.60
2022-08-23T19:00:42.932Z,57.80
2022-08-23T19:03:11.213Z,58.50
2022-08-23T19:05:41.876Z,58.70
2022-08-23T19:08:10.888Z,58.80
2022-08-23T19:10:38.405Z,58.90
2022-08-23T19:13:06.060Z,59.20
2022-08-23T19:15:34.596Z,59.70
2022-08-23T19:18:02.353Z,60.10
2022-08-23T19:20:29.705Z,60.30
2022-08-23T19:22:58.126Z,60.50
2022-08-23T19:25:25.913Z,60.80
2022-08-23T19:27:53.244Z,61.30
2022-08-23T19:30:20.654Z,61.50
2022-08-23T19:32:47.973Z,62.10
2022-08-23T19:35:16.119Z,62.40
2022-08-23T19:37:43.691Z,62.60
2022-08-23T19:40:11.888Z,63.00
2022-08-23T19:42:40.195Z,63.30
2022-08-23T19:45:08.115Z,63.70
2022-08-23T19:47:35.490Z,63.90
2022-08-23T19:50:04.763Z,64.00
2022-08-23T19:52:32.458Z,64.20
2022-08-23T19:55:05.691Z,64.60
2022-08-23T19:57:35.367Z,64.60
2022-08-23T20:00:09.413Z,65.00
2022-08-23T20:02:36.799Z,65.30
2022-08-23T20:05:05.823Z,65.40
2022-08-23T20:07:36.182Z,65.90
2022-08-23T20:10:05.202Z,66.30
2022-08-23T20:12:33.296Z,66.90
2022-08-23T20:15:01.040Z,67.40
2022-08-23T20:17:28.443Z,67.70
2022-08-23T20:19:55.941Z,67.90
2022-08-23T20:22:41.631Z,68.30
2022-08-23T20:25:10.224Z,68.50
2022-08-23T20:27:37.623Z,69.00
2022-08-23T20:30:06.830Z,69.10
2022-08-23T20:32:34.338Z,69.00
2022-08-23T20:35:01.940Z,68.90
2022-08-23T20:37:29.438Z,69.00
2022-08-23T20:39:56.998Z,68.90
2022-08-23T20:42:24.467Z,69.00
2022-08-23T20:44:51.861Z,69.30
2022-08-23T20:47:19.301Z,69.20
2022-08-23T20:49:46.815Z,69.10
2022-08-23T20:52:14.236Z,69.60
2022-08-23T20:54:41.584Z,69.80
2022-08-23T20:57:08.917Z,70.00
2022-08-23T20:59:38.884Z,70.10
2022-08-23T21:02:08.424Z,70.30
2022-08-23T21:04:35.864Z,70.30
2022-08-23T21:07:03.231Z,70.40
2022-08-23T21:09:30.768Z,70.80
2022-08-23T21:11:58.107Z,70.90
2022-08-23T21:14:25.458Z,71.60
2022-08-23T21:16:52.871Z,71.70
2022-08-23T21:19:20.232Z,71.60
2022-08-23T21:21:47.654Z,71.50
2022-08-23T21:24:15.246Z,71.80
2022-08-23T21:26:42.949Z,71.70
2022-08-23T21:29:10.399Z,72.50
2022-08-23T21:31:37.900Z,71.70
2022-08-23T21:34:05.339Z,71.50
2022-08-23T21:36:32.732Z,70.40
2022-08-23T21:39:00.147Z,69.90
2022-08-23T21:41:34.863Z,70.10
2022-08-23T21:44:03.216Z,71.20
2022-08-23T21:46:30.699Z,71.60
2022-08-23T21:48:58.112Z,72.40
2022-08-23T21:51:25.548Z,72.60
2022-08-23T21:53:52.903Z,73.20
2022-08-23T21:56:20.673Z,73.20
2022-08-23T21:58:50.735Z,73.50
2022-08-23T22:01:18.814Z,73.80
2022-08-23T22:03:46.276Z,74.30
2022-08-23T22:06:14.667Z,74.80
2022-08-23T22:08:42.460Z,75.00
2022-08-23T22:11:11.295Z,75.30
2022-08-23T22:13:38.744Z,75.60
2022-08-23T22:16:06.955Z,75.00
2022-08-23T22:18:34.951Z,74.30
2022-08-23T22:21:03.095Z,75.90
2022-08-23T22:23:31.468Z,76.50
2022-08-23T22:26:04.441Z,76.20
2022-08-23T22:28:32.540Z,76.60
2022-08-23T22:31:04.994Z,77.90
2022-08-23T22:33:32.527Z,78.30
2022-08-23T22:36:10.746Z,78.30
2022-08-23T22:38:38.534Z,78.00
2022-08-23T22:41:05.876Z,78.80
2022-08-23T22:43:33.280Z,79.00
2022-08-23T22:46:02.163Z,79.30
2022-08-23T22:48:30.850Z,80.00
2022-08-23T22:51:11.399Z,81.40
2022-08-23T22:53:40.289Z,81.80
2022-08-23T22:56:07.790Z,82.30
2022-08-23T22:58:35.141Z,82.40
2022-08-23T23:01:07.075Z,82.90
2022-08-23T23:03:41.177Z,83.50
2022-08-23T23:06:08.871Z,83.40
2022-08-23T23:08:36.974Z,83.80
2022-08-23T23:11:06.223Z,84.30
2022-08-23T23:13:33.678Z,84.90
2022-08-23T23:16:08.861Z,85.20
2022-08-23T23:18:36.575Z,85.60
2022-08-23T23:21:04.502Z,86.40
2022-08-23T23:23:32.496Z,87.30
2022-08-23T23:26:00.226Z,87.90
2022-08-23T23:28:27.615Z,88.50
2022-08-23T23:30:55.550Z,89.00
2022-08-23T23:33:23.445Z,89.20
2022-08-23T23:35:51.744Z,89.20
2022-08-23T23:38:19.252Z,89.20
2022-08-23T23:40:46.645Z,89.70
2022-08-23T23:43:14.023Z,90.10
2022-08-23T23:45:41.725Z,90.20
2022-08-23T23:48:09.961Z,90.50
2022-08-23T23:50:42.392Z,91.10
2022-08-23T23:53:12.948Z,91.10
2022-08-23T23:55:40.405Z,91.10
2022-08-23T23:58:07.865Z,91.30
